createdAt,value
2018-05-29T00:02:20.443Z,101917.73
2018-05-29T00:04:48.102Z,101916.83
2018-05-29T00:07:15.739Z,101918.59
2018-05-29T00:09:43.358Z,101914.63
2018-05-29T00:12:10.987Z,101910.69
2018-05-29T00:14:38.603Z,101901.86
2018-05-29T00:17:06.315Z,101906.27
2018-05-29T00:19:33.927Z,101903.61
2018-05-29T00:22:01.567Z,101904.05
2018-05-29T00:24:29.178Z,101894.80
2018-05-29T00:26:56.815Z,101889.08
2018-05-29T00:29:24.426Z,101885.59
2018-05-29T00:31:52.063Z,101892.14
2018-05-29T00:34:19.682Z,101885.09
2018-05-29T00:36:47.325Z,101882.41
2018-05-29T00:39:14.941Z,101885.03
2018-05-29T00:41:42.578Z,101873.62
2018-05-29T00:44:10.190Z,101870.08
2018-05-29T00:46:37.859Z,101867.44
2018-05-29T00:49:05.510Z,101868.72
2018-05-29T00:51:33.170Z,101871.34
2018-05-29T00:54:00.835Z,101865.62
2018-05-29T00:56:28.472Z,101862.52
2018-05-29T00:58:56.162Z,101860.33
2018-05-29T01:01:23.805Z,101862.95
2018-05-29T01:03:51.423Z,101862.50
2018-05-29T01:06:19.148Z,101868.66
2018-05-29T01:08:46.767Z,101872.59
2018-05-29T01:11:14.398Z,101873.47
2018-05-29T01:13:42.011Z,101865.14
2018-05-29T01:16:09.655Z,101874.77
2018-05-29T01:18:37.278Z,101865.55
2018-05-29T01:21:04.923Z,101870.37
2018-05-29T01:23:32.558Z,101865.09
2018-05-29T01:26:00.174Z,101869.48
2018-05-29T01:28:27.803Z,101872.14
2018-05-29T01:30:55.422Z,101862.93
2018-05-29T01:33:23.059Z,101857.23
2018-05-29T01:35:50.677Z,101864.26
2018-05-29T01:38:18.314Z,101858.55
2018-05-29T01:40:45.929Z,101860.75
2018-05-29T01:43:13.567Z,101860.77
2018-05-29T01:45:41.230Z,101854.19
2018-05-29T01:48:08.866Z,101857.70
2018-05-29T01:50:36.558Z,101853.33
2018-05-29T01:53:04.227Z,101852.89
2018-05-29T01:55:31.842Z,101847.64
2018-05-29T01:57:59.488Z,101849.43
2018-05-29T02:00:27.112Z,101847.68
2018-05-29T02:02:54.749Z,101847.70
2018-05-29T02:05:22.425Z,101845.49
2018-05-29T02:07:50.095Z,101845.06
2018-05-29T02:10:17.746Z,101846.00
2018-05-29T02:12:45.379Z,101840.33
2018-05-29T02:15:12.990Z,101844.31
2018-05-29T02:17:40.734Z,101844.77
2018-05-29T02:20:08.360Z,101843.48
2018-05-29T02:22:36.008Z,101842.17
2018-05-29T02:25:03.628Z,101843.09
2018-05-29T02:27:31.270Z,101836.13
2018-05-29T02:29:58.886Z,101837.45
2018-05-29T02:32:26.534Z,101846.30
2018-05-29T02:34:54.169Z,101840.19
2018-05-29T02:37:21.832Z,101844.18
2018-05-29T02:39:49.476Z,101837.64
2018-05-29T02:42:17.104Z,101842.48
2018-05-29T02:44:44.747Z,101837.27
2018-05-29T02:47:12.359Z,101833.33
2018-05-29T02:49:40.038Z,101830.70
2018-05-29T02:52:07.651Z,101831.58
2018-05-29T02:54:35.367Z,101829.86
2018-05-29T02:57:02.987Z,101829.89
2018-05-29T02:59:30.700Z,101822.46
2018-05-29T03:01:58.454Z,101823.77
2018-05-29T03:04:26.092Z,101822.48
2018-05-29T03:06:53.708Z,101829.95
2018-05-29T03:09:21.349Z,101823.83
2018-05-29T03:11:48.998Z,101824.27
2018-05-29T03:14:16.668Z,101815.92
2018-05-29T03:16:44.278Z,101822.51
2018-05-29T03:19:11.992Z,101819.87
2018-05-29T03:21:39.601Z,101825.59
2018-05-29T03:24:07.320Z,101826.91
2018-05-29T03:26:34.994Z,101821.64
2018-05-29T03:29:02.659Z,101821.64
2018-05-29T03:31:30.303Z,101820.73
2018-05-29T03:33:57.934Z,101819.89
2018-05-29T03:36:25.556Z,101818.12
2018-05-29T03:38:53.199Z,101815.48
2018-05-29T03:41:20.851Z,101819.00
2018-05-29T03:43:48.516Z,101817.65
2018-05-29T03:46:16.129Z,101812.39
2018-05-29T03:48:43.789Z,101814.11
2018-05-29T03:51:11.494Z,101809.71
2018-05-29T03:53:39.115Z,101818.47
2018-05-29T03:56:06.824Z,101819.72
2018-05-29T03:58:34.447Z,101819.55
2018-05-29T04:01:03.791Z,101813.61
2018-05-29T04:03:31.402Z,101817.70
2018-05-29T04:05:59.033Z,101817.36
2018-05-29T04:08:26.644Z,101817.84
2018-05-29T04:10:54.700Z,101817.38
2018-05-29T04:13:22.325Z,101814.24
2018-05-29T04:15:49.996Z,101812.88
2018-05-29T04:18:17.631Z,101814.16
2018-05-29T04:20:45.266Z,101814.14
2018-05-29T04:23:12.887Z,101821.64
2018-05-29T04:25:40.606Z,101824.28
2018-05-29T04:28:08.268Z,101819.03
2018-05-29T04:30:35.917Z,101828.81
2018-05-29T04:33:03.539Z,101817.80
2018-05-29T04:35:31.255Z,101827.52
2018-05-29T04:37:58.923Z,101831.88
2018-05-29T04:40:26.559Z,101831.06
2018-05-29T04:42:54.179Z,101833.71
2018-05-29T04:45:21.906Z,101829.68
2018-05-29T04:47:49.579Z,101829.65
2018-05-29T04:50:17.214Z,101832.88
2018-05-29T04:52:44.894Z,101837.95
2018-05-29T04:55:12.559Z,101836.38
2018-05-29T04:57:40.171Z,101837.83
2018-05-29T05:00:07.817Z,101829.17
2018-05-29T05:02:35.565Z,101833.27
2018-05-29T05:05:03.206Z,101833.33
2018-05-29T05:07:30.869Z,101825.05
2018-05-29T05:09:58.478Z,101829.97
2018-05-29T05:12:26.120Z,101833.99
2018-05-29T05:14:53.754Z,101836.25
2018-05-29T05:17:21.390Z,101831.03
2018-05-29T05:19:49.002Z,101834.18
2018-05-29T05:22:16.643Z,101835.99
2018-05-29T05:24:44.265Z,101839.53
2018-05-29T05:27:11.968Z,101833.34
2018-05-29T05:29:39.583Z,101836.42
2018-05-29T05:32:07.223Z,101841.19
2018-05-29T05:34:34.850Z,101846.42
2018-05-29T05:37:02.481Z,101841.89
2018-05-29T05:39:30.101Z,101844.45
2018-05-29T05:41:57.734Z,101838.16
2018-05-29T05:44:25.386Z,101842.47
2018-05-29T05:46:53.053Z,101844.56
2018-05-29T05:49:21.452Z,101849.27
2018-05-29T05:51:49.215Z,101846.47
2018-05-29T05:54:16.836Z,101848.48
2018-05-29T05:56:44.531Z,101842.09
2018-05-29T05:59:12.142Z,101834.91
2018-05-29T06:01:39.770Z,101832.52
2018-05-29T06:04:07.416Z,101839.02
2018-05-29T06:06:35.079Z,101840.17
2018-05-29T06:09:02.692Z,101839.52
2018-05-29T06:11:30.407Z,101848.17
2018-05-29T06:13:58.031Z,101836.00
2018-05-29T06:16:25.716Z,101837.06
2018-05-29T06:18:53.339Z,101837.69
2018-05-29T06:21:20.946Z,101827.72
2018-05-29T06:23:48.607Z,101831.92
2018-05-29T06:26:16.280Z,101838.34
2018-05-29T06:28:43.940Z,101831.52
2018-05-29T06:31:11.559Z,101833.05
2018-05-29T06:33:39.195Z,101834.59
2018-05-29T06:36:06.810Z,101835.75
2018-05-29T06:38:34.475Z,101839.91
2018-05-29T06:41:02.082Z,101838.75
2018-05-29T06:43:29.850Z,101841.13
2018-05-29T06:45:57.566Z,101837.34
2018-05-29T06:48:25.199Z,101835.30
2018-05-29T06:50:52.819Z,101832.86
2018-05-29T06:53:20.550Z,101833.05
2018-05-29T06:55:48.171Z,101827.95
2018-05-29T06:58:15.884Z,101828.66
2018-05-29T07:00:43.498Z,101817.41
2018-05-29T07:03:11.136Z,101818.95
2018-05-29T07:05:38.762Z,101823.62
2018-05-29T07:08:06.399Z,101818.00
2018-05-29T07:10:34.085Z,101818.56
2018-05-29T07:13:01.746Z,101821.42
2018-05-29T07:15:29.419Z,101816.25
2018-05-29T07:17:57.080Z,101822.20
2018-05-29T07:20:24.701Z,101819.81
2018-05-29T07:22:52.397Z,101819.58
2018-05-29T07:25:20.058Z,101818.52
2018-05-29T07:27:47.728Z,101818.82
2018-05-29T07:30:15.335Z,101820.39
2018-05-29T07:32:43.050Z,101812.66
2018-05-29T07:35:10.816Z,101816.41
2018-05-29T07:37:38.583Z,101816.13
2018-05-29T07:40:06.223Z,101814.92
2018-05-29T07:42:33.846Z,101812.00
2018-05-29T07:45:01.491Z,101810.84
2018-05-29T07:47:29.107Z,101806.59
2018-05-29T07:49:56.752Z,101802.34
2018-05-29T07:52:24.462Z,101800.73
2018-05-29T07:54:52.119Z,101801.80
2018-05-29T07:57:19.741Z,101802.92
2018-05-29T07:59:47.401Z,101798.28
2018-05-29T08:02:15.013Z,101800.76
2018-05-29T08:04:42.756Z,101797.86
2018-05-29T08:07:10.419Z,101784.81
2018-05-29T08:09:38.054Z,101789.97
2018-05-29T08:12:05.671Z,101782.78
2018-05-29T08:14:33.303Z,101782.17
2018-05-29T08:17:00.910Z,101793.98
2018-05-29T08:19:28.550Z,101790.27
2018-05-29T08:21:56.158Z,101794.48
2018-05-29T08:24:23.791Z,101788.44
2018-05-29T08:26:51.414Z,101789.86
2018-05-29T08:29:19.060Z,101781.52
2018-05-29T08:31:46.743Z,101779.05
2018-05-29T08:34:14.398Z,101782.79
2018-05-29T08:36:42.053Z,101782.49
2018-05-29T08:39:09.689Z,101786.21
2018-05-29T08:41:37.399Z,101781.53
2018-05-29T08:44:05.078Z,101779.03
2018-05-29T08:46:32.711Z,101780.13
2018-05-29T08:49:00.365Z,101775.59
2018-05-29T08:51:28.136Z,101775.87
2018-05-29T08:53:55.752Z,101774.38
2018-05-29T08:56:23.387Z,101783.53
2018-05-29T08:58:50.990Z,101782.47
2018-05-29T09:01:18.623Z,101778.25
2018-05-29T09:03:46.230Z,101774.90
2018-05-29T09:06:13.920Z,101767.89
2018-05-29T09:08:41.690Z,101766.20
2018-05-29T09:11:09.331Z,101764.88
2018-05-29T09:13:36.943Z,101767.23
2018-05-29T09:16:04.660Z,101764.24
2018-05-29T09:18:32.328Z,101770.27
2018-05-29T09:20:59.967Z,101770.81
2018-05-29T09:23:27.647Z,101766.09
2018-05-29T09:25:55.321Z,101761.81
2018-05-29T09:28:22.940Z,101767.52
2018-05-29T09:30:50.588Z,101764.80
2018-05-29T09:33:18.195Z,101756.66
2018-05-29T09:35:45.863Z,101757.79
2018-05-29T09:38:13.530Z,101760.29
2018-05-29T09:40:41.178Z,101747.77
2018-05-29T09:43:08.785Z,101752.53
2018-05-29T09:45:36.409Z,101745.35
2018-05-29T09:48:04.033Z,101747.59
2018-05-29T09:50:31.826Z,101745.35
2018-05-29T09:52:59.452Z,101739.47
2018-05-29T09:55:27.092Z,101738.44
2018-05-29T09:57:54.824Z,101738.17
2018-05-29T10:00:28.211Z,101732.70
2018-05-29T10:02:55.827Z,101735.64
2018-05-29T10:05:23.451Z,101737.17
2018-05-29T10:07:51.054Z,101733.41
2018-05-29T10:10:18.690Z,101725.11
2018-05-29T10:12:46.327Z,101722.56
2018-05-29T10:15:13.948Z,101724.38
2018-05-29T10:17:41.642Z,101730.97
2018-05-29T10:20:09.307Z,101728.75
2018-05-29T10:22:36.938Z,101734.19
2018-05-29T10:25:04.555Z,101724.08
2018-05-29T10:27:32.191Z,101735.47
2018-05-29T10:29:59.858Z,101715.44
2018-05-29T10:32:27.514Z,101713.00
2018-05-29T10:34:55.175Z,101715.57
2018-05-29T10:37:22.812Z,101718.30
2018-05-29T10:39:50.430Z,101714.16
2018-05-29T10:42:18.062Z,101704.11
2018-05-29T10:44:45.678Z,101704.31
2018-05-29T10:47:13.312Z,101701.88
2018-05-29T10:49:40.918Z,101690.16
2018-05-29T10:52:08.610Z,101696.66
2018-05-29T10:54:36.211Z,101688.58
2018-05-29T10:57:03.843Z,101684.91
2018-05-29T10:59:31.454Z,101676.92
2018-05-29T11:01:59.111Z,101676.52
2018-05-29T11:04:26.831Z,101674.85
2018-05-29T11:06:54.483Z,101672.98
2018-05-29T11:09:22.242Z,101677.73
2018-05-29T11:11:49.903Z,101676.82
2018-05-29T11:14:17.514Z,101676.80
2018-05-29T11:16:45.239Z,101669.52
2018-05-29T11:19:12.842Z,101670.84
2018-05-29T11:21:40.476Z,101674.87
2018-05-29T11:24:08.096Z,101670.42
2018-05-29T11:26:35.739Z,101665.34
2018-05-29T11:29:03.439Z,101668.33
2018-05-29T11:31:31.052Z,101662.53
2018-05-29T11:33:58.766Z,101658.59
2018-05-29T11:36:26.366Z,101659.88
2018-05-29T11:38:54.099Z,101653.61
2018-05-29T11:41:21.709Z,101654.06
2018-05-29T11:43:49.347Z,101651.20
2018-05-29T11:46:16.963Z,101655.05
2018-05-29T11:48:44.590Z,101654.97
2018-05-29T11:51:12.298Z,101657.55
2018-05-29T11:53:39.961Z,101652.61
2018-05-29T11:56:07.722Z,101650.23
2018-05-29T11:58:35.387Z,101642.48
2018-05-29T12:01:02.999Z,101647.34
2018-05-29T12:03:30.713Z,101647.22
2018-05-29T12:05:58.331Z,101633.69
2018-05-29T12:08:25.957Z,101640.92
2018-05-29T12:10:53.594Z,101628.95
2018-05-29T12:13:21.235Z,101627.29
2018-05-29T12:15:48.852Z,101625.80
2018-05-29T12:18:16.487Z,101629.33
2018-05-29T12:20:44.103Z,101619.47
2018-05-29T12:23:11.811Z,101627.24
2018-05-29T12:25:39.424Z,101623.49
2018-05-29T12:28:07.050Z,101622.47
2018-05-29T12:30:34.690Z,101624.53
2018-05-29T12:33:02.362Z,101627.78
2018-05-29T12:35:29.975Z,101619.91
2018-05-29T12:37:57.687Z,101616.78
2018-05-29T12:40:25.361Z,101619.59
2018-05-29T12:42:52.975Z,101612.46
2018-05-29T12:45:20.616Z,101607.90
2018-05-29T12:47:48.235Z,101609.91
2018-05-29T12:50:15.882Z,101619.02
2018-05-29T12:52:43.496Z,101614.00
2018-05-29T12:55:11.132Z,101615.91
2018-05-29T12:57:38.737Z,101602.83
2018-05-29T13:00:06.532Z,101598.84
2018-05-29T13:02:34.148Z,101601.79
2018-05-29T13:05:01.860Z,101608.55
2018-05-29T13:07:29.491Z,101593.69
2018-05-29T13:09:57.142Z,101598.97
2018-05-29T13:12:24.746Z,101591.00
2018-05-29T13:14:52.383Z,101592.45
2018-05-29T13:17:19.994Z,101591.89
2018-05-29T13:19:47.624Z,101593.69
2018-05-29T13:22:15.291Z,101582.21
2018-05-29T13:24:42.935Z,101582.58
2018-05-29T13:27:10.740Z,101581.05
2018-05-29T13:29:38.376Z,101582.26
2018-05-29T13:32:05.986Z,101575.49
2018-05-29T13:34:33.711Z,101578.64
2018-05-29T13:37:01.324Z,101570.73
2018-05-29T13:39:28.949Z,101565.67
2018-05-29T13:41:56.590Z,101566.38
2018-05-29T13:44:24.224Z,101563.06
2018-05-29T13:46:51.838Z,101563.78
2018-05-29T13:49:19.674Z,101567.73
2018-05-29T13:51:47.347Z,101553.77
2018-05-29T13:54:15.008Z,101547.92
2018-05-29T13:56:42.660Z,101555.33
2018-05-29T13:59:10.326Z,101547.27
2018-05-29T14:01:38.398Z,101540.70
2018-05-29T14:04:06.011Z,101541.19
2018-05-29T14:06:33.646Z,101538.87
2018-05-29T14:09:01.254Z,101531.17
2018-05-29T14:11:28.886Z,101532.40
2018-05-29T14:13:56.606Z,101526.89
2018-05-29T14:16:24.264Z,101530.70
2018-05-29T14:18:51.929Z,101519.39
2018-05-29T14:21:19.603Z,101511.28
2018-05-29T14:23:47.211Z,101514.82
2018-05-29T14:26:14.914Z,101524.64
2018-05-29T14:28:42.576Z,101516.94
2018-05-29T14:31:10.213Z,101504.95
2018-05-29T14:33:37.814Z,101507.26
2018-05-29T14:36:05.439Z,101505.38
2018-05-29T14:38:33.154Z,101504.31
2018-05-29T14:41:00.787Z,101497.89
2018-05-29T14:43:29.167Z,101498.17
2018-05-29T14:45:56.798Z,101496.64
2018-05-29T14:48:24.500Z,101491.62
2018-05-29T14:50:52.145Z,101488.45
2018-05-29T14:53:19.813Z,101486.56
2018-05-29T14:55:47.481Z,101481.45
2018-05-29T14:58:15.082Z,101485.41
2018-05-29T15:00:42.706Z,101479.53
2018-05-29T15:03:10.319Z,101474.11
2018-05-29T15:05:37.955Z,101468.25
2018-05-29T15:08:05.571Z,101465.91
2018-05-29T15:10:33.208Z,101465.36
2018-05-29T15:13:00.811Z,101460.33
2018-05-29T15:15:28.414Z,101461.67
2018-05-29T15:17:56.048Z,101463.16
2018-05-29T15:20:23.703Z,101461.97
2018-05-29T15:22:51.350Z,101445.20
2018-05-29T15:25:19.014Z,101447.13
2018-05-29T15:27:46.651Z,101450.23
2018-05-29T15:30:14.269Z,101438.16
2018-05-29T15:32:41.910Z,101438.07
2018-05-29T15:35:09.562Z,101434.95
2018-05-29T15:37:37.741Z,101442.47
2018-05-29T15:40:05.346Z,101434.47
2018-05-29T15:42:33.067Z,101429.62
2018-05-29T15:45:00.673Z,101426.50
2018-05-29T15:47:28.300Z,101425.10
2018-05-29T15:49:55.910Z,101423.76
2018-05-29T15:52:23.543Z,101423.82
2018-05-29T15:54:51.163Z,101420.86
2018-05-29T15:57:18.790Z,101417.74
2018-05-29T15:59:46.494Z,101414.14
2018-05-29T16:02:14.163Z,101419.63
2018-05-29T16:04:41.776Z,101415.55
2018-05-29T16:07:09.415Z,101407.92
2018-05-29T16:09:37.038Z,101411.58
2018-05-29T16:12:04.707Z,101395.08
2018-05-29T16:14:32.367Z,101398.25
2018-05-29T16:17:00.010Z,101395.50
2018-05-29T16:19:27.618Z,101399.59
2018-05-29T16:21:55.251Z,101399.22
2018-05-29T16:24:22.916Z,101396.36
2018-05-29T16:26:50.679Z,101401.91
2018-05-29T16:29:18.294Z,101403.04
2018-05-29T16:31:45.902Z,101390.53
2018-05-29T16:34:13.539Z,101386.24
2018-05-29T16:36:41.218Z,101387.09
2018-05-29T16:39:08.887Z,101382.23
2018-05-29T16:41:36.503Z,101378.49
2018-05-29T16:44:04.208Z,101385.40
2018-05-29T16:46:31.880Z,101377.09
2018-05-29T16:48:59.545Z,101376.22
2018-05-29T16:51:27.145Z,101375.78
2018-05-29T16:53:54.864Z,101371.98
2018-05-29T16:56:22.529Z,101377.22
2018-05-29T16:58:50.177Z,101380.42
2018-05-29T17:01:17.788Z,101376.98
2018-05-29T17:03:45.422Z,101368.98
2018-05-29T17:06:13.048Z,101374.72
2018-05-29T17:08:40.682Z,101370.77
2018-05-29T17:11:08.297Z,101371.62
2018-05-29T17:13:35.952Z,101377.27
2018-05-29T17:16:03.628Z,101383.11
2018-05-29T17:18:31.263Z,101378.73
2018-05-29T17:20:58.940Z,101382.85
2018-05-29T17:23:26.598Z,101383.48
2018-05-29T17:25:54.207Z,101386.35
2018-05-29T17:28:21.839Z,101389.91
2018-05-29T17:30:49.455Z,101388.12
2018-05-29T17:33:17.142Z,101392.25
2018-05-29T17:35:44.806Z,101386.89
2018-05-29T17:38:12.487Z,101387.62
2018-05-29T17:40:40.111Z,101391.37
2018-05-29T17:43:07.727Z,101392.84
2018-05-29T17:45:35.456Z,101386.89
2018-05-29T17:48:03.076Z,101387.92
2018-05-29T17:50:30.736Z,101379.87
2018-05-29T17:52:58.354Z,101384.47
2018-05-29T17:55:26.003Z,101382.73
2018-05-29T17:57:53.610Z,101381.12
2018-05-29T18:00:21.331Z,101376.30
2018-05-29T18:02:48.947Z,101380.23
2018-05-29T18:05:16.650Z,101370.39
2018-05-29T18:07:44.253Z,101368.89
2018-05-29T18:10:11.891Z,101369.35
2018-05-29T18:12:39.499Z,101371.48
2018-05-29T18:15:07.151Z,101376.59
2018-05-29T18:17:34.771Z,101373.82
2018-05-29T18:20:02.428Z,101374.00
2018-05-29T18:22:30.040Z,101379.87
2018-05-29T18:24:57.679Z,101381.78
2018-05-29T18:27:25.308Z,101386.13
2018-05-29T18:29:52.934Z,101388.63
2018-05-29T18:32:20.560Z,101390.73
2018-05-29T18:34:48.192Z,101394.28
2018-05-29T18:37:15.811Z,101400.84
2018-05-29T18:39:43.509Z,101406.34
2018-05-29T18:42:11.171Z,101408.73
2018-05-29T18:44:38.868Z,101407.53
2018-05-29T18:47:06.495Z,101411.34
2018-05-29T18:49:34.122Z,101415.55
2018-05-29T18:52:01.773Z,101417.64
2018-05-29T18:54:29.491Z,101415.81
2018-05-29T18:56:57.105Z,101416.23
2018-05-29T18:59:24.819Z,101417.46
2018-05-29T19:01:52.461Z,101425.27
2018-05-29T19:04:20.131Z,101425.86
2018-05-29T19:06:47.796Z,101426.45
2018-05-29T19:09:15.416Z,101438.13
2018-05-29T19:11:43.046Z,101432.39
2018-05-29T19:14:10.650Z,101440.86
2018-05-29T19:16:38.356Z,101439.66
2018-05-29T19:19:05.972Z,101444.16
2018-05-29T19:21:33.671Z,101443.32
2018-05-29T19:24:01.287Z,101441.90
2018-05-29T19:26:28.946Z,101446.29
2018-05-29T19:28:56.615Z,101446.69
2018-05-29T19:31:24.221Z,101448.02
2018-05-29T19:33:51.838Z,101451.45
2018-05-29T19:36:19.471Z,101449.09
2018-05-29T19:38:47.112Z,101445.41
2018-05-29T19:41:14.738Z,101449.67
2018-05-29T19:43:42.356Z,101446.86
2018-05-29T19:46:09.991Z,101448.43
2018-05-29T19:48:37.640Z,101451.38
2018-05-29T19:51:05.278Z,101449.04
2018-05-29T19:53:32.894Z,101451.55
2018-05-29T19:56:00.626Z,101454.98
2018-05-29T19:58:28.297Z,101451.00
2018-05-29T20:00:55.942Z,101446.05
2018-05-29T20:03:30.183Z,101450.41
2018-05-29T20:05:57.842Z,101453.91
2018-05-29T20:08:25.463Z,101452.16
2018-05-29T20:10:53.160Z,101454.71
2018-05-29T20:13:20.781Z,101455.10
2018-05-29T20:15:48.413Z,101448.33
2018-05-29T20:18:16.139Z,101450.36
2018-05-29T20:20:43.819Z,101448.88
2018-05-29T20:23:11.456Z,101449.55
2018-05-29T20:25:39.140Z,101452.38
2018-05-29T20:28:06.780Z,101453.86
2018-05-29T20:30:34.394Z,101450.95
2018-05-29T20:33:02.022Z,101452.44
2018-05-29T20:35:29.639Z,101452.59
2018-05-29T20:37:57.343Z,101450.54
2018-05-29T20:40:25.004Z,101450.30
2018-05-29T20:42:52.657Z,101451.84
2018-05-29T20:45:20.272Z,101449.02
2018-05-29T20:47:47.912Z,101449.67
2018-05-29T20:50:15.542Z,101454.72
2018-05-29T20:52:43.223Z,101461.05
2018-05-29T20:55:10.876Z,101453.69
2018-05-29T20:57:39.096Z,101457.38
2018-05-29T21:00:06.706Z,101460.20
2018-05-29T21:02:34.375Z,101455.02
2018-05-29T21:05:02.032Z,101456.55
2018-05-29T21:07:29.662Z,101456.29
2018-05-29T21:09:57.354Z,101446.79
2018-05-29T21:12:24.986Z,101457.16
2018-05-29T21:14:52.598Z,101453.87
2018-05-29T21:17:20.239Z,101447.02
2018-05-29T21:19:47.908Z,101447.20
2018-05-29T21:22:15.617Z,101440.80
2018-05-29T21:24:43.190Z,101443.60
2018-05-29T21:27:10.830Z,101438.92
2018-05-29T21:29:38.451Z,101436.10
2018-05-29T21:32:06.054Z,101432.78
2018-05-29T21:34:33.695Z,101429.03
2018-05-29T21:37:01.307Z,101427.05
2018-05-29T21:39:28.953Z,101428.58
2018-05-29T21:41:56.567Z,101427.90
2018-05-29T21:44:24.226Z,101432.90
2018-05-29T21:46:51.834Z,101436.55
2018-05-29T21:49:19.537Z,101440.66
2018-05-29T21:51:47.202Z,101437.34
2018-05-29T21:54:14.836Z,101430.89
2018-05-29T21:56:42.451Z,101434.18
2018-05-29T21:59:10.079Z,101434.74
2018-05-29T22:01:37.686Z,101433.11
2018-05-29T22:04:05.411Z,101424.95
2018-05-29T22:06:33.027Z,101418.92
2018-05-29T22:09:00.738Z,101416.37
2018-05-29T22:11:28.407Z,101423.05
2018-05-29T22:13:56.068Z,101415.66
2018-05-29T22:16:23.733Z,101415.75
2018-05-29T22:18:51.360Z,101413.63
2018-05-29T22:21:19.001Z,101416.79
2018-05-29T22:23:46.630Z,101412.03
2018-05-29T22:26:14.239Z,101415.12
2018-05-29T22:28:41.871Z,101413.88
2018-05-29T22:31:09.599Z,101412.67
2018-05-29T22:33:37.230Z,101419.32
2018-05-29T22:36:04.847Z,101420.26
2018-05-29T22:38:32.486Z,101419.84
2018-05-29T22:41:00.147Z,101418.18
2018-05-29T22:43:27.797Z,101413.41
2018-05-29T22:45:55.466Z,101416.11
2018-05-29T22:48:23.070Z,101419.66
2018-05-29T22:50:50.703Z,101418.84
2018-05-29T22:53:18.317Z,101418.89
2018-05-29T22:55:45.951Z,101415.41
2018-05-29T22:58:13.558Z,101419.34
2018-05-29T23:00:41.199Z,101415.44
2018-05-29T23:03:08.908Z,101414.14
2018-05-29T23:05:36.558Z,101415.92
2018-05-29T23:08:04.184Z,101418.13
2018-05-29T23:10:31.814Z,101423.01
2018-05-29T23:12:59.414Z,101420.81
2018-05-29T23:15:27.046Z,101417.34
2018-05-29T23:17:54.671Z,101412.08
2018-05-29T23:20:22.302Z,101417.35
2018-05-29T23:22:49.910Z,101418.28
2018-05-29T23:25:17.655Z,101420.08
2018-05-29T23:27:45.315Z,101415.69
2018-05-29T23:30:12.974Z,101414.42
2018-05-29T23:32:40.639Z,101417.95
2018-05-29T23:35:08.303Z,101418.86
2018-05-29T23:37:35.962Z,101417.60
2018-05-29T23:40:03.600Z,101426.00
2018-05-29T23:42:31.211Z,101423.83
2018-05-29T23:44:58.847Z,101419.91
2018-05-29T23:47:26.515Z,101428.72
2018-05-29T23:49:54.156Z,101419.95
2018-05-29T23:52:21.768Z,101419.53
2018-05-29T23:54:49.495Z,101420.44
2018-05-29T23:57:17.106Z,101416.06
2018-05-29T23:59:44.724Z,101409.52
